Abbotsford, Canada
Current Conditions -  °F | °C
As of 6:00 PM on Thursday 18 Dec 2014 (Local Time) from CYXX Reporting Station
Clear Clear  
Wind Chill: 37°   Ceiling: Unl
Heat Index: 43°   Visibility: 10mi
Dew Point: 43°   Wind: 9mph
Humidity: 100%   Direction: 40°NE
Pressure: 29.74"   Gusts: NA
Location:  49.05°N, 122.33°W
Report Text: CYXX 190200Z 04008KT 10SM 06/06 A2974 RMK SLP071
Loading
Personal Weather Stations






























Interactive Weather Map New forecast layout! Learn more

10-Day Weather Forecast

Advertisements
Track Severe Weather on mobile